sensor_id;sensor_type;location;lat;lon;timestamp;pressure;altitude;pressure_sealevel;temperature;humidity
65384;BME280;51986;52.788;41.368;2023-03-29T00:01:37;98482.22;;;8.87;50.82
65384;BME280;51986;52.788;41.368;2023-03-29T00:04:04;98497.31;;;9.07;50.21
65384;BME280;51986;52.788;41.368;2023-03-29T00:06:32;98487.72;;;8.96;50.58
65384;BME280;51986;52.788;41.368;2023-03-29T00:09:00;98478.06;;;8.90;50.34
65384;BME280;51986;52.788;41.368;2023-03-29T00:11:26;98501.09;;;9.06;50.06
65384;BME280;51986;52.788;41.368;2023-03-29T00:13:53;98466.53;;;9.03;50.30
65384;BME280;51986;52.788;41.368;2023-03-29T00:16:21;98466.16;;;8.82;50.75
65384;BME280;51986;52.788;41.368;2023-03-29T00:18:48;98486.22;;;8.95;50.33
65384;BME280;51986;52.788;41.368;2023-03-29T00:21:14;98476.53;;;8.89;50.24
65384;BME280;51986;52.788;41.368;2023-03-29T00:23:42;98490.78;;;8.91;50.48
65384;BME280;51986;52.788;41.368;2023-03-29T00:26:09;98448.94;;;8.77;50.21
65384;BME280;51986;52.788;41.368;2023-03-29T00:28:36;98474.09;;;8.78;50.67
65384;BME280;51986;52.788;41.368;2023-03-29T00:31:11;98462.50;;;8.75;51.35
65384;BME280;51986;52.788;41.368;2023-03-29T00:33:40;98462.41;;;8.79;50.38
65384;BME280;51986;52.788;41.368;2023-03-29T00:36:08;98472.09;;;8.86;50.53
65384;BME280;51986;52.788;41.368;2023-03-29T00:38:36;98465.50;;;8.97;50.25
65384;BME280;51986;52.788;41.368;2023-03-29T00:41:04;98465.41;;;8.81;49.88
65384;BME280;51986;52.788;41.368;2023-03-29T00:46:18;98461.00;;;8.98;49.49
65384;BME280;51986;52.788;41.368;2023-03-29T00:48:45;98468.50;;;8.72;50.12
65384;BME280;51986;52.788;41.368;2023-03-29T00:51:14;98463.81;;;8.87;50.06
65384;BME280;51986;52.788;41.368;2023-03-29T00:53:48;98457.16;;;9.02;49.53
65384;BME280;51986;52.788;41.368;2023-03-29T00:56:26;98509.44;;;9.00;49.55
65384;BME280;51986;52.788;41.368;2023-03-29T00:59:03;98429.34;;;8.82;49.60
65384;BME280;51986;52.788;41.368;2023-03-29T01:01:49;98452.19;;;9.08;49.15
65384;BME280;51986;52.788;41.368;2023-03-29T01:04:24;98468.59;;;9.16;48.86
65384;BME280;51986;52.788;41.368;2023-03-29T01:06:59;98440.66;;;9.02;48.91
65384;BME280;51986;52.788;41.368;2023-03-29T01:09:31;98429.25;;;9.09;49.15
65384;BME280;51986;52.788;41.368;2023-03-29T01:12:02;98436.34;;;8.88;49.32
65384;BME280;51986;52.788;41.368;2023-03-29T01:14:40;98440.31;;;9.00;49.18
65384;BME280;51986;52.788;41.368;2023-03-29T01:17:10;98435.78;;;9.00;48.77
65384;BME280;51986;52.788;41.368;2023-03-29T01:19:43;98441.16;;;8.93;48.71
65384;BME280;51986;52.788;41.368;2023-03-29T01:25:15;98467.19;;;9.11;48.02
65384;BME280;51986;52.788;41.368;2023-03-29T01:30:51;98460.25;;;8.97;48.03
65384;BME280;51986;52.788;41.368;2023-03-29T01:33:24;98441.00;;;9.04;48.57
65384;BME280;51986;52.788;41.368;2023-03-29T01:36:04;98444.25;;;8.88;48.94
65384;BME280;51986;52.788;41.368;2023-03-29T01:38:43;98440.53;;;8.86;48.83
65384;BME280;51986;52.788;41.368;2023-03-29T01:41:12;98450.88;;;8.96;48.66
65384;BME280;51986;52.788;41.368;2023-03-29T01:43:55;98448.34;;;8.89;49.24
65384;BME280;51986;52.788;41.368;2023-03-29T01:49:32;98458.72;;;8.73;49.47
65384;BME280;51986;52.788;41.368;2023-03-29T01:52:07;98440.19;;;8.84;49.09
65384;BME280;51986;52.788;41.368;2023-03-29T01:54:41;98445.59;;;8.73;49.64
65384;BME280;51986;52.788;41.368;2023-03-29T01:57:10;98448.16;;;8.80;49.90
65384;BME280;51986;52.788;41.368;2023-03-29T01:59:39;98486.56;;;8.70;50.13
65384;BME280;51986;52.788;41.368;2023-03-29T02:02:12;98470.03;;;8.70;50.22
65384;BME280;51986;52.788;41.368;2023-03-29T02:04:45;98448.34;;;8.66;50.34
65384;BME280;51986;52.788;41.368;2023-03-29T02:07:15;98440.28;;;8.49;50.99
65384;BME280;51986;52.788;41.368;2023-03-29T02:09:44;98448.22;;;8.46;50.78
65384;BME280;51986;52.788;41.368;2023-03-29T02:12:14;98449.41;;;8.41;51.22
65384;BME280;51986;52.788;41.368;2023-03-29T02:14:42;98443.50;;;8.61;51.02
65384;BME280;51986;52.788;41.368;2023-03-29T02:17:19;98431.66;;;8.49;51.29
65384;BME280;51986;52.788;41.368;2023-03-29T02:19:57;98440.84;;;8.37;51.49
65384;BME280;51986;52.788;41.368;2023-03-29T02:22:32;98422.25;;;8.51;51.55
65384;BME280;51986;52.788;41.368;2023-03-29T02:25:04;98430.94;;;8.48;51.64
65384;BME280;51986;52.788;41.368;2023-03-29T02:27:33;98438.22;;;8.37;52.04
65384;BME280;51986;52.788;41.368;2023-03-29T02:30:00;98441.88;;;8.43;51.99
65384;BME280;51986;52.788;41.368;2023-03-29T02:32:37;98446.34;;;8.46;52.04
65384;BME280;51986;52.788;41.368;2023-03-29T02:35:31;98471.09;;;8.49;52.29
65384;BME280;51986;52.788;41.368;2023-03-29T02:38:03;98447.16;;;8.43;52.25
65384;BME280;51986;52.788;41.368;2023-03-29T02:40:31;98439.28;;;8.13;53.16
65384;BME280;51986;52.788;41.368;2023-03-29T02:43:01;98439.16;;;8.23;52.42
65384;BME280;51986;52.788;41.368;2023-03-29T02:45:29;98414.53;;;8.14;53.33
65384;BME280;51986;52.788;41.368;2023-03-29T02:48:01;98429.97;;;8.08;53.32
65384;BME280;51986;52.788;41.368;2023-03-29T02:50:34;98427.28;;;8.12;53.27
65384;BME280;51986;52.788;41.368;2023-03-29T02:53:08;98381.03;;;7.91;53.65
65384;BME280;51986;52.788;41.368;2023-03-29T02:55:40;98419.97;;;7.99;54.32
65384;BME280;51986;52.788;41.368;2023-03-29T02:58:07;98425.00;;;7.83;54.49
65384;BME280;51986;52.788;41.368;2023-03-29T03:00:42;98413.25;;;7.95;54.24
65384;BME280;51986;52.788;41.368;2023-03-29T03:03:11;98410.56;;;7.98;53.89
65384;BME280;51986;52.788;41.368;2023-03-29T03:05:38;98416.53;;;8.02;54.31
65384;BME280;51986;52.788;41.368;2023-03-29T03:08:06;98400.38;;;8.04;54.16
65384;BME280;51986;52.788;41.368;2023-03-29T03:10:34;98408.16;;;7.84;54.59
65384;BME280;51986;52.788;41.368;2023-03-29T03:13:04;98409.91;;;7.94;54.51
65384;BME280;51986;52.788;41.368;2023-03-29T03:15:32;98438.44;;;7.89;54.73
65384;BME280;51986;52.788;41.368;2023-03-29T03:17:59;98395.25;;;7.93;54.33
65384;BME280;51986;52.788;41.368;2023-03-29T03:20:26;98389.94;;;8.00;54.17
65384;BME280;51986;52.788;41.368;2023-03-29T03:22:54;98430.91;;;8.21;53.82
65384;BME280;51986;52.788;41.368;2023-03-29T03:25:21;98426.75;;;8.24;53.47
65384;BME280;51986;52.788;41.368;2023-03-29T03:27:49;98408.53;;;8.13;53.86
65384;BME280;51986;52.788;41.368;2023-03-29T03:30:19;98420.38;;;8.25;53.83
65384;BME280;51986;52.788;41.368;2023-03-29T03:33:05;98392.66;;;8.20;53.95
65384;BME280;51986;52.788;41.368;2023-03-29T03:35:51;98404.19;;;7.99;53.57
65384;BME280;51986;52.788;41.368;2023-03-29T03:38:18;98390.06;;;8.17;53.57
65384;BME280;51986;52.788;41.368;2023-03-29T03:40:54;98435.66;;;8.03;54.39
65384;BME280;51986;52.788;41.368;2023-03-29T03:43:22;98405.38;;;8.22;53.63
65384;BME280;51986;52.788;41.368;2023-03-29T03:45:50;98373.81;;;7.98;54.83
65384;BME280;51986;52.788;41.368;2023-03-29T03:48:21;98397.50;;;8.22;53.76
65384;BME280;51986;52.788;41.368;2023-03-29T03:50:57;98399.50;;;8.14;54.16
65384;BME280;51986;52.788;41.368;2023-03-29T03:53:30;98409.59;;;8.16;54.09
65384;BME280;51986;52.788;41.368;2023-03-29T03:56:23;98396.50;;;8.12;54.53
65384;BME280;51986;52.788;41.368;2023-03-29T03:59:09;98401.84;;;8.09;54.90
65384;BME280;51986;52.788;41.368;2023-03-29T04:02:08;98421.44;;;8.00;55.40
65384;BME280;51986;52.788;41.368;2023-03-29T04:04:37;98428.44;;;8.11;55.59
65384;BME280;51986;52.788;41.368;2023-03-29T04:07:13;98389.00;;;8.14;55.18
65384;BME280;51986;52.788;41.368;2023-03-29T04:10:10;98415.97;;;8.18;55.51
65384;BME280;51986;52.788;41.368;2023-03-29T04:12:48;98429.03;;;8.22;55.70
65384;BME280;51986;52.788;41.368;2023-03-29T04:15:15;98416.34;;;8.17;55.74
65384;BME280;51986;52.788;41.368;2023-03-29T04:17:50;98415.31;;;8.11;56.27
65384;BME280;51986;52.788;41.368;2023-03-29T04:20:39;98418.25;;;8.13;56.20
65384;BME280;51986;52.788;41.368;2023-03-29T04:23:08;98396.91;;;8.11;56.48
65384;BME280;51986;52.788;41.368;2023-03-29T04:25:39;98401.03;;;8.12;56.68
65384;BME280;51986;52.788;41.368;2023-03-29T04:28:39;98419.38;;;8.15;57.00
65384;BME280;51986;52.788;41.368;2023-03-29T04:31:13;98421.47;;;7.97;57.46
65384;BME280;51986;52.788;41.368;2023-03-29T04:33:57;98419.78;;;8.14;57.10
65384;BME280;51986;52.788;41.368;2023-03-29T04:36:27;98426.75;;;7.93;57.95
65384;BME280;51986;52.788;41.368;2023-03-29T04:38:54;98428.97;;;8.25;56.98
65384;BME280;51986;52.788;41.368;2023-03-29T04:41:24;98435.47;;;8.17;57.33
65384;BME280;51986;52.788;41.368;2023-03-29T04:43:56;98424.66;;;8.12;57.62
65384;BME280;51986;52.788;41.368;2023-03-29T04:46:25;98401.50;;;8.03;57.53
65384;BME280;51986;52.788;41.368;2023-03-29T04:49:12;98417.66;;;8.01;57.78
65384;BME280;51986;52.788;41.368;2023-03-29T04:51:45;98451.63;;;7.85;58.64
65384;BME280;51986;52.788;41.368;2023-03-29T04:54:14;98432.53;;;8.12;57.93
65384;BME280;51986;52.788;41.368;2023-03-29T04:57:05;98409.41;;;7.72;58.44
65384;BME280;51986;52.788;41.368;2023-03-29T04:59:54;98405.81;;;7.90;58.22
65384;BME280;51986;52.788;41.368;2023-03-29T05:02:50;98427.00;;;7.75;58.94
65384;BME280;51986;52.788;41.368;2023-03-29T05:05:18;98421.75;;;7.75;58.87
65384;BME280;51986;52.788;41.368;2023-03-29T05:07:47;98436.50;;;7.96;57.69
65384;BME280;51986;52.788;41.368;2023-03-29T05:10:19;98449.72;;;7.89;57.86
65384;BME280;51986;52.788;41.368;2023-03-29T05:12:48;98434.44;;;7.81;57.77
65384;BME280;51986;52.788;41.368;2023-03-29T05:15:15;98448.31;;;7.81;57.46
65384;BME280;51986;52.788;41.368;2023-03-29T05:17:42;98446.69;;;7.91;56.93
65384;BME280;51986;52.788;41.368;2023-03-29T05:20:11;98447.94;;;7.79;57.18
65384;BME280;51986;52.788;41.368;2023-03-29T05:22:41;98447.63;;;7.73;57.04
65384;BME280;51986;52.788;41.368;2023-03-29T05:25:11;98432.72;;;7.67;57.52
65384;BME280;51986;52.788;41.368;2023-03-29T05:27:40;98437.53;;;7.72;57.22
65384;BME280;51986;52.788;41.368;2023-03-29T05:30:11;98432.25;;;7.75;57.50
65384;BME280;51986;52.788;41.368;2023-03-29T05:33:01;98464.34;;;7.90;57.11
65384;BME280;51986;52.788;41.368;2023-03-29T05:35:30;98399.31;;;7.71;57.38
65384;BME280;51986;52.788;41.368;2023-03-29T05:37:59;98429.91;;;7.85;57.31
65384;BME280;51986;52.788;41.368;2023-03-29T05:40:30;98431.56;;;7.98;57.06
65384;BME280;51986;52.788;41.368;2023-03-29T05:43:12;98422.34;;;7.87;57.77
65384;BME280;51986;52.788;41.368;2023-03-29T05:45:39;98432.97;;;8.07;56.83
65384;BME280;51986;52.788;41.368;2023-03-29T05:48:06;98439.84;;;7.97;57.43
65384;BME280;51986;52.788;41.368;2023-03-29T05:50:34;98453.91;;;7.83;58.05
65384;BME280;51986;52.788;41.368;2023-03-29T05:53:01;98423.59;;;8.09;56.66
65384;BME280;51986;52.788;41.368;2023-03-29T05:55:28;98431.75;;;8.15;56.70
65384;BME280;51986;52.788;41.368;2023-03-29T05:57:55;98441.81;;;8.20;56.26
65384;BME280;51986;52.788;41.368;2023-03-29T06:00:27;98399.09;;;8.16;55.90
65384;BME280;51986;52.788;41.368;2023-03-29T06:03:13;98443.38;;;8.44;55.67
65384;BME280;51986;52.788;41.368;2023-03-29T06:05:45;98421.56;;;8.47;55.54
65384;BME280;51986;52.788;41.368;2023-03-29T06:08:15;98424.84;;;8.28;55.24
65384;BME280;51986;52.788;41.368;2023-03-29T06:10:46;98451.25;;;8.44;54.98
65384;BME280;51986;52.788;41.368;2023-03-29T06:13:39;98439.16;;;8.50;54.76
65384;BME280;51986;52.788;41.368;2023-03-29T06:16:10;98415.13;;;8.52;54.66
65384;BME280;51986;52.788;41.368;2023-03-29T06:18:38;98430.53;;;8.50;54.42
65384;BME280;51986;52.788;41.368;2023-03-29T06:21:05;98443.16;;;8.59;53.35
65384;BME280;51986;52.788;41.368;2023-03-29T06:23:34;98444.38;;;8.81;53.79
65384;BME280;51986;52.788;41.368;2023-03-29T06:26:05;98430.72;;;8.63;53.33
65384;BME280;51986;52.788;41.368;2023-03-29T06:28:35;98435.56;;;8.64;53.31
65384;BME280;51986;52.788;41.368;2023-03-29T06:31:02;98409.59;;;8.93;52.50
65384;BME280;51986;52.788;41.368;2023-03-29T06:33:36;98436.72;;;8.90;52.28
65384;BME280;51986;52.788;41.368;2023-03-29T06:36:13;98437.00;;;8.96;52.42
65384;BME280;51986;52.788;41.368;2023-03-29T06:38:42;98452.25;;;8.81;51.96
65384;BME280;51986;52.788;41.368;2023-03-29T06:41:35;98401.28;;;8.71;52.68
65384;BME280;51986;52.788;41.368;2023-03-29T06:44:05;98412.44;;;8.79;52.32
65384;BME280;51986;52.788;41.368;2023-03-29T06:46:48;98378.13;;;8.90;51.69
65384;BME280;51986;52.788;41.368;2023-03-29T06:49:15;98390.50;;;8.89;52.02
65384;BME280;51986;52.788;41.368;2023-03-29T06:51:55;98388.09;;;8.75;51.62
65384;BME280;51986;52.788;41.368;2023-03-29T06:54:23;98447.31;;;8.83;51.76
65384;BME280;51986;52.788;41.368;2023-03-29T06:57:01;98388.41;;;8.81;51.90
65384;BME280;51986;52.788;41.368;2023-03-29T06:59:30;98394.72;;;9.07;51.73
65384;BME280;51986;52.788;41.368;2023-03-29T10:35:29;98443.56;;;8.84;56.67
65384;BME280;51986;52.788;41.368;2023-03-29T10:38:02;98444.06;;;8.99;55.31
65384;BME280;51986;52.788;41.368;2023-03-29T10:40:39;98432.25;;;8.87;54.20
65384;BME280;51986;52.788;41.368;2023-03-29T10:43:13;98459.56;;;9.17;53.96
65384;BME280;51986;52.788;41.368;2023-03-29T10:45:51;98444.53;;;9.17;53.54
65384;BME280;51986;52.788;41.368;2023-03-29T10:48:24;98468.47;;;9.23;53.79
65384;BME280;51986;52.788;41.368;2023-03-29T10:50:57;98429.56;;;9.34;52.80
65384;BME280;51986;52.788;41.368;2023-03-29T10:53:35;98402.44;;;9.37;53.07
65384;BME280;51986;52.788;41.368;2023-03-29T11:10:35;98439.78;;;9.72;51.61
65384;BME280;51986;52.788;41.368;2023-03-29T11:13:12;98424.53;;;9.63;51.64
65384;BME280;51986;52.788;41.368;2023-03-29T11:21:11;98439.63;;;9.79;51.49
65384;BME280;51986;52.788;41.368;2023-03-29T11:26:23;98414.25;;;9.69;52.04
65384;BME280;51986;52.788;41.368;2023-03-29T11:29:07;98423.22;;;9.91;50.69
65384;BME280;51986;52.788;41.368;2023-03-29T11:42:20;98420.97;;;9.90;51.28
65384;BME280;51986;52.788;41.368;2023-03-29T11:44:50;98441.84;;;9.80;51.36
65384;BME280;51986;52.788;41.368;2023-03-29T11:47:23;98394.66;;;9.70;51.44
65384;BME280;51986;52.788;41.368;2023-03-29T11:50:06;98415.38;;;9.88;51.04
65384;BME280;51986;52.788;41.368;2023-03-29T11:52:44;98449.56;;;9.91;50.87
65384;BME280;51986;52.788;41.368;2023-03-29T11:55:23;98444.34;;;10.07;51.34
65384;BME280;51986;52.788;41.368;2023-03-29T11:57:56;98440.94;;;9.91;51.26
65384;BME280;51986;52.788;41.368;2023-03-29T12:00:37;98453.97;;;9.78;51.42
65384;BME280;51986;52.788;41.368;2023-03-29T12:03:20;98435.09;;;9.79;51.40
65384;BME280;51986;52.788;41.368;2023-03-29T12:06:00;98435.19;;;9.96;51.02
65384;BME280;51986;52.788;41.368;2023-03-29T12:08:51;98425.47;;;10.09;50.65
65384;BME280;51986;52.788;41.368;2023-03-29T12:11:35;98432.16;;;10.14;50.29
65384;BME280;51986;52.788;41.368;2023-03-29T12:14:27;98445.25;;;10.37;50.56
65384;BME280;51986;52.788;41.368;2023-03-29T12:16:59;98433.34;;;10.29;50.45
65384;BME280;51986;52.788;41.368;2023-03-29T12:19:36;98443.47;;;10.14;51.02
65384;BME280;51986;52.788;41.368;2023-03-29T12:22:08;98429.50;;;9.97;51.55
65384;BME280;51986;52.788;41.368;2023-03-29T12:24:41;98456.78;;;9.87;51.65
65384;BME280;51986;52.788;41.368;2023-03-29T12:27:27;98423.50;;;9.77;51.83
65384;BME280;51986;52.788;41.368;2023-03-29T12:30:05;98437.53;;;9.70;51.58
65384;BME280;51986;52.788;41.368;2023-03-29T12:32:51;98442.97;;;9.63;52.22
65384;BME280;51986;52.788;41.368;2023-03-29T12:35:50;98447.69;;;9.72;51.69
65384;BME280;51986;52.788;41.368;2023-03-29T12:38:41;98420.47;;;9.59;52.61
65384;BME280;51986;52.788;41.368;2023-03-29T12:41:35;98417.88;;;9.75;52.06
65384;BME280;51986;52.788;41.368;2023-03-29T12:44:22;98419.94;;;9.47;52.19
65384;BME280;51986;52.788;41.368;2023-03-29T12:47:17;98423.16;;;9.55;52.35
65384;BME280;51986;52.788;41.368;2023-03-29T12:49:51;98413.38;;;9.55;51.62
65384;BME280;51986;52.788;41.368;2023-03-29T12:52:25;98412.84;;;9.64;51.22
65384;BME280;51986;52.788;41.368;2023-03-29T12:54:56;98449.03;;;9.60;51.80
65384;BME280;51986;52.788;41.368;2023-03-29T12:57:41;98432.75;;;9.45;51.75
65384;BME280;51986;52.788;41.368;2023-03-29T13:03:02;98452.38;;;9.41;51.97
65384;BME280;51986;52.788;41.368;2023-03-29T13:05:34;98443.03;;;9.60;51.87
65384;BME280;51986;52.788;41.368;2023-03-29T13:08:21;98447.06;;;9.64;51.47
65384;BME280;51986;52.788;41.368;2023-03-29T13:10:53;98456.81;;;9.67;51.54
65384;BME280;51986;52.788;41.368;2023-03-29T13:16:18;98470.44;;;9.82;51.09
65384;BME280;51986;52.788;41.368;2023-03-29T13:21:38;98416.75;;;9.76;50.93
65384;BME280;51986;52.788;41.368;2023-03-29T13:40:41;98473.88;;;9.79;51.51
65384;BME280;51986;52.788;41.368;2023-03-29T13:46:22;98451.13;;;9.69;52.37
65384;BME280;51986;52.788;41.368;2023-03-29T13:49:02;98477.19;;;9.63;52.29
65384;BME280;51986;52.788;41.368;2023-03-29T13:51:37;98468.66;;;9.55;52.41
65384;BME280;51986;52.788;41.368;2023-03-29T13:57:17;98456.97;;;9.57;53.04
65384;BME280;51986;52.788;41.368;2023-03-29T13:59:54;98455.22;;;9.50;53.40
65384;BME280;51986;52.788;41.368;2023-03-29T14:02:45;98469.88;;;9.51;53.88
65384;BME280;51986;52.788;41.368;2023-03-29T14:05:22;98470.34;;;9.66;52.89
65384;BME280;51986;52.788;41.368;2023-03-29T14:07:54;98461.72;;;9.65;52.85
65384;BME280;51986;52.788;41.368;2023-03-29T14:10:34;98460.75;;;9.55;52.94
65384;BME280;51986;52.788;41.368;2023-03-29T14:13:05;98472.66;;;9.64;52.57
65384;BME280;51986;52.788;41.368;2023-03-29T14:15:45;98463.06;;;9.53;52.58
65384;BME280;51986;52.788;41.368;2023-03-29T14:18:18;98484.47;;;9.55;52.21
65384;BME280;51986;52.788;41.368;2023-03-29T14:20:48;98467.88;;;9.59;52.04
65384;BME280;51986;52.788;41.368;2023-03-29T14:23:43;98477.25;;;9.60;52.58
65384;BME280;51986;52.788;41.368;2023-03-29T14:26:16;98472.34;;;9.62;52.70
65384;BME280;51986;52.788;41.368;2023-03-29T14:28:48;98474.97;;;9.62;52.01
65384;BME280;51986;52.788;41.368;2023-03-29T14:31:17;98481.50;;;9.53;51.89
65384;BME280;51986;52.788;41.368;2023-03-29T14:33:44;98461.13;;;9.58;52.47
65384;BME280;51986;52.788;41.368;2023-03-29T14:36:14;98477.59;;;9.62;52.76
65384;BME280;51986;52.788;41.368;2023-03-29T14:38:49;98481.84;;;9.75;51.70
65384;BME280;51986;52.788;41.368;2023-03-29T14:41:16;98450.16;;;9.79;51.87
65384;BME280;51986;52.788;41.368;2023-03-29T14:43:44;98476.50;;;9.79;52.28
65384;BME280;51986;52.788;41.368;2023-03-29T14:46:14;98487.03;;;9.79;51.89
65384;BME280;51986;52.788;41.368;2023-03-29T14:48:44;98471.72;;;9.74;52.22
65384;BME280;51986;52.788;41.368;2023-03-29T14:51:11;98483.94;;;9.84;52.25
65384;BME280;51986;52.788;41.368;2023-03-29T14:53:39;98480.34;;;9.94;52.14
65384;BME280;51986;52.788;41.368;2023-03-29T14:56:10;98494.00;;;10.09;51.59
65384;BME280;51986;52.788;41.368;2023-03-29T14:58:44;98483.81;;;9.91;51.70
65384;BME280;51986;52.788;41.368;2023-03-29T15:01:19;98484.34;;;10.02;51.80
65384;BME280;51986;52.788;41.368;2023-03-29T15:03:55;98477.44;;;10.09;51.77
65384;BME280;51986;52.788;41.368;2023-03-29T15:06:24;98496.91;;;10.15;52.03
65384;BME280;51986;52.788;41.368;2023-03-29T15:08:51;98488.72;;;9.89;51.70
65384;BME280;51986;52.788;41.368;2023-03-29T15:11:32;98522.38;;;9.82;52.55
65384;BME280;51986;52.788;41.368;2023-03-29T15:16:28;98495.69;;;9.60;52.90
65384;BME280;51986;52.788;41.368;2023-03-29T15:18:56;98476.66;;;9.72;52.96
65384;BME280;51986;52.788;41.368;2023-03-29T15:21:30;98486.25;;;9.62;53.39
65384;BME280;51986;52.788;41.368;2023-03-29T15:24:01;98502.91;;;9.32;53.87
65384;BME280;51986;52.788;41.368;2023-03-29T15:26:32;98497.91;;;9.61;53.43
65384;BME280;51986;52.788;41.368;2023-03-29T15:29:17;98499.69;;;9.68;54.18
65384;BME280;51986;52.788;41.368;2023-03-29T15:31:53;98498.22;;;9.43;55.49
65384;BME280;51986;52.788;41.368;2023-03-29T15:34:27;98490.84;;;9.35;55.27
65384;BME280;51986;52.788;41.368;2023-03-29T15:36:56;98497.88;;;9.41;55.20
65384;BME280;51986;52.788;41.368;2023-03-29T15:39:24;98479.22;;;9.09;56.37
65384;BME280;51986;52.788;41.368;2023-03-29T15:41:53;98479.22;;;9.09;56.56
65384;BME280;51986;52.788;41.368;2023-03-29T15:44:26;98497.72;;;9.05;57.16
65384;BME280;51986;52.788;41.368;2023-03-29T15:46:54;98511.63;;;9.06;57.14
65384;BME280;51986;52.788;41.368;2023-03-29T15:49:22;98499.84;;;9.14;57.05
65384;BME280;51986;52.788;41.368;2023-03-29T15:51:49;98509.91;;;8.95;58.47
65384;BME280;51986;52.788;41.368;2023-03-29T15:54:16;98511.94;;;9.08;57.83
65384;BME280;51986;52.788;41.368;2023-03-29T15:56:47;98507.66;;;8.94;58.65
65384;BME280;51986;52.788;41.368;2023-03-29T15:59:15;98522.16;;;9.06;58.65
65384;BME280;51986;52.788;41.368;2023-03-29T16:01:42;98515.41;;;9.05;58.75
65384;BME280;51986;52.788;41.368;2023-03-29T16:04:17;98518.56;;;8.92;58.61
65384;BME280;51986;52.788;41.368;2023-03-29T16:06:47;98521.50;;;8.98;59.02
65384;BME280;51986;52.788;41.368;2023-03-29T16:09:15;98513.88;;;9.03;59.03
65384;BME280;51986;52.788;41.368;2023-03-29T16:11:43;98518.81;;;9.01;58.45
65384;BME280;51986;52.788;41.368;2023-03-29T16:14:29;98522.03;;;9.13;58.54
65384;BME280;51986;52.788;41.368;2023-03-29T16:16:58;98532.94;;;9.11;58.11
65384;BME280;51986;52.788;41.368;2023-03-29T16:19:27;98533.28;;;9.13;58.55
65384;BME280;51986;52.788;41.368;2023-03-29T16:21:55;98537.00;;;8.92;58.97
65384;BME280;51986;52.788;41.368;2023-03-29T16:24:24;98533.44;;;9.02;59.52
65384;BME280;51986;52.788;41.368;2023-03-29T16:26:52;98531.59;;;8.76;59.90
65384;BME280;51986;52.788;41.368;2023-03-29T16:29:22;98527.03;;;8.80;59.96
65384;BME280;51986;52.788;41.368;2023-03-29T16:31:50;98545.66;;;8.89;60.00
65384;BME280;51986;52.788;41.368;2023-03-29T16:34:17;98544.03;;;8.99;60.35
65384;BME280;51986;52.788;41.368;2023-03-29T16:36:46;98548.88;;;8.73;60.62
65384;BME280;51986;52.788;41.368;2023-03-29T16:39:13;98548.00;;;8.84;60.00
65384;BME280;51986;52.788;41.368;2023-03-29T16:41:40;98549.69;;;8.97;60.27
65384;BME280;51986;52.788;41.368;2023-03-29T16:44:14;98555.66;;;9.01;60.17
65384;BME280;51986;52.788;41.368;2023-03-29T16:46:42;98537.78;;;8.89;60.48
65384;BME280;51986;52.788;41.368;2023-03-29T16:49:13;98557.13;;;9.02;61.03
65384;BME280;51986;52.788;41.368;2023-03-29T16:51:40;98549.97;;;9.03;60.61
65384;BME280;51986;52.788;41.368;2023-03-29T16:54:20;98545.47;;;9.03;60.29
65384;BME280;51986;52.788;41.368;2023-03-29T16:56:47;98572.91;;;9.02;60.52
65384;BME280;51986;52.788;41.368;2023-03-29T16:59:14;98560.56;;;8.99;61.02
65384;BME280;51986;52.788;41.368;2023-03-29T17:01:41;98573.13;;;8.88;61.02
65384;BME280;51986;52.788;41.368;2023-03-29T17:04:08;98567.81;;;8.92;61.03
65384;BME280;51986;52.788;41.368;2023-03-29T17:06:35;98566.41;;;8.84;61.13
65384;BME280;51986;52.788;41.368;2023-03-29T17:09:03;98557.16;;;8.72;61.50
65384;BME280;51986;52.788;41.368;2023-03-29T17:11:29;98544.34;;;8.77;61.05
65384;BME280;51986;52.788;41.368;2023-03-29T17:13:56;98563.59;;;8.98;60.81
65384;BME280;51986;52.788;41.368;2023-03-29T17:16:23;98567.47;;;8.90;60.98
65384;BME280;51986;52.788;41.368;2023-03-29T17:18:50;98560.81;;;8.82;61.26
65384;BME280;51986;52.788;41.368;2023-03-29T17:21:20;98582.34;;;8.69;62.45
65384;BME280;51986;52.788;41.368;2023-03-29T17:23:47;98587.47;;;8.49;63.01
65384;BME280;51986;52.788;41.368;2023-03-29T17:26:20;98571.22;;;8.58;62.62
65384;BME280;51986;52.788;41.368;2023-03-29T17:28:48;98556.06;;;8.69;62.19
65384;BME280;51986;52.788;41.368;2023-03-29T17:31:15;98580.38;;;8.81;62.20
65384;BME280;51986;52.788;41.368;2023-03-29T17:33:42;98571.53;;;8.64;63.06
65384;BME280;51986;52.788;41.368;2023-03-29T17:36:09;98552.28;;;8.74;62.58
65384;BME280;51986;52.788;41.368;2023-03-29T17:38:36;98574.41;;;8.73;62.92
65384;BME280;51986;52.788;41.368;2023-03-29T17:41:04;98584.34;;;8.62;63.04
65384;BME280;51986;52.788;41.368;2023-03-29T17:43:31;98573.19;;;8.50;63.56
65384;BME280;51986;52.788;41.368;2023-03-29T17:45:57;98568.59;;;8.58;63.46
65384;BME280;51986;52.788;41.368;2023-03-29T17:48:25;98566.63;;;8.35;64.41
65384;BME280;51986;52.788;41.368;2023-03-29T17:50:54;98585.28;;;8.44;64.25
65384;BME280;51986;52.788;41.368;2023-03-29T17:53:21;98592.34;;;8.51;64.64
65384;BME280;51986;52.788;41.368;2023-03-29T17:55:49;98578.16;;;8.45;64.42
65384;BME280;51986;52.788;41.368;2023-03-29T17:58:16;98587.31;;;8.64;64.90
65384;BME280;51986;52.788;41.368;2023-03-29T18:00:43;98555.38;;;8.35;65.44
65384;BME280;51986;52.788;41.368;2023-03-29T18:03:10;98566.94;;;8.41;65.39
65384;BME280;51986;52.788;41.368;2023-03-29T18:05:37;98579.72;;;8.39;65.99
65384;BME280;51986;52.788;41.368;2023-03-29T18:08:04;98570.28;;;8.41;66.00
65384;BME280;51986;52.788;41.368;2023-03-29T18:10:31;98564.47;;;8.26;66.07
65384;BME280;51986;52.788;41.368;2023-03-29T18:12:58;98573.16;;;8.54;65.23
65384;BME280;51986;52.788;41.368;2023-03-29T18:15:25;98565.84;;;8.38;66.65
65384;BME280;51986;52.788;41.368;2023-03-29T18:17:52;98559.13;;;8.34;66.82
65384;BME280;51986;52.788;41.368;2023-03-29T18:20:20;98568.84;;;8.37;67.13
65384;BME280;51986;52.788;41.368;2023-03-29T18:22:47;98579.16;;;8.55;66.40